sensor_id;sensor_type;location;lat;lon;timestamp;pressure;altitude;pressure_sealevel;temperature;humidity
61676;BME280;47574;52.090;5.244;2023-04-10T00:01:14;102058.0;;;16.86;38.83
61676;BME280;47574;52.090;5.244;2023-04-10T00:02:51;102056.0;;;16.84;39.07
61676;BME280;47574;52.090;5.244;2023-04-10T00:06:03;102048.0;;;16.7;39.28
61676;BME280;47574;52.090;5.244;2023-04-10T00:07:41;102050.0;;;16.56;39.5
61676;BME280;47574;52.090;5.244;2023-04-10T00:09:17;102048.0;;;16.86;39.08
61676;BME280;47574;52.090;5.244;2023-04-10T00:12:30;102050.0;;;16.86;39.28
61676;BME280;47574;52.090;5.244;2023-04-10T00:14:06;102047.0;;;16.61;39.64
61676;BME280;47574;52.090;5.244;2023-04-10T00:15:43;102045.0;;;16.75;39.5
61676;BME280;47574;52.090;5.244;2023-04-10T00:18:56;102042.0;;;16.77;39.37
61676;BME280;47574;52.090;5.244;2023-04-10T00:20:32;102038.0;;;16.9;39.26
61676;BME280;47574;52.090;5.244;2023-04-10T00:22:10;102033.0;;;16.47;39.81
61676;BME280;47574;52.090;5.244;2023-04-10T00:23:46;102031.0;;;16.64;39.53
61676;BME280;47574;52.090;5.244;2023-04-10T00:26:58;102020.0;;;16.62;39.71
61676;BME280;47574;52.090;5.244;2023-04-10T00:28:34;102019.0;;;16.75;39.56
61676;BME280;47574;52.090;5.244;2023-04-10T00:30:10;102015.0;;;16.68;39.81
61676;BME280;47574;52.090;5.244;2023-04-10T00:33:24;102011.0;;;16.71;39.78
61676;BME280;47574;52.090;5.244;2023-04-10T00:35:00;102009.0;;;16.47;40.03
61676;BME280;47574;52.090;5.244;2023-04-10T00:36:37;102008.0;;;16.27;40.39
61676;BME280;47574;52.090;5.244;2023-04-10T00:39:49;102002.0;;;16.36;40.47
61676;BME280;47574;52.090;5.244;2023-04-10T00:41:25;102005.0;;;16.15;40.69
61676;BME280;47574;52.090;5.244;2023-04-10T00:43:01;102005.0;;;16.31;40.32
61676;BME280;47574;52.090;5.244;2023-04-10T00:44:37;102005.0;;;16.61;40.15
61676;BME280;47574;52.090;5.244;2023-04-10T00:47:50;102006.0;;;16.46;40.39
61676;BME280;47574;52.090;5.244;2023-04-10T00:49:26;102001.0;;;16.55;40.31
61676;BME280;47574;52.090;5.244;2023-04-10T00:51:03;101997.0;;;16.43;40.31
61676;BME280;47574;52.090;5.244;2023-04-10T00:54:17;101990.0;;;16.43;40.64
61676;BME280;47574;52.090;5.244;2023-04-10T00:55:53;101990.0;;;16.45;40.67
61676;BME280;47574;52.090;5.244;2023-04-10T00:57:31;101991.0;;;16.38;40.72
61676;BME280;47574;52.090;5.244;2023-04-10T01:00:46;101987.0;;;16.41;40.69
61676;BME280;47574;52.090;5.244;2023-04-10T01:02:22;101987.0;;;16.31;40.82
61676;BME280;47574;52.090;5.244;2023-04-10T01:03:58;101986.0;;;16.36;40.75
61676;BME280;47574;52.090;5.244;2023-04-10T01:05:39;101982.0;;;16.27;40.96
61676;BME280;47574;52.090;5.244;2023-04-10T01:09:07;101982.0;;;16.4;40.76
61676;BME280;47574;52.090;5.244;2023-04-10T01:11:05;101980.0;;;16.31;40.96
61676;BME280;47574;52.090;5.244;2023-04-10T01:12:51;101983.0;;;15.75;41.9
61676;BME280;47574;52.090;5.244;2023-04-10T01:14:37;101984.0;;;16.11;41.39
61676;BME280;47574;52.090;5.244;2023-04-10T01:16:20;101981.0;;;16.22;41.31
61676;BME280;47574;52.090;5.244;2023-04-10T01:19:57;101981.0;;;16.3;41.17
61676;BME280;47574;52.090;5.244;2023-04-10T01:21:45;101975.0;;;16.25;41.33
61676;BME280;47574;52.090;5.244;2023-04-10T01:23:51;101970.0;;;16.14;41.51
61676;BME280;47574;52.090;5.244;2023-04-10T01:25:55;101969.0;;;16.25;41.33
61676;BME280;47574;52.090;5.244;2023-04-10T01:27:39;101965.0;;;16.34;41.21
61676;BME280;47574;52.090;5.244;2023-04-10T01:29:19;101960.0;;;16.3;41.28
61676;BME280;47574;52.090;5.244;2023-04-10T01:31:00;101960.0;;;16.27;41.33
61676;BME280;47574;52.090;5.244;2023-04-10T01:34:19;101957.0;;;16.27;41.4
61676;BME280;47574;52.090;5.244;2023-04-10T01:36:00;101958.0;;;16.31;41.4
61676;BME280;47574;52.090;5.244;2023-04-10T01:37:41;101953.0;;;16.18;41.49
61676;BME280;47574;52.090;5.244;2023-04-10T01:39:20;101949.0;;;16.3;41.37
61676;BME280;47574;52.090;5.244;2023-04-10T01:42:40;101947.0;;;16.25;41.55
61676;BME280;47574;52.090;5.244;2023-04-10T01:44:20;101944.0;;;15.9;41.97
61676;BME280;47574;52.090;5.244;2023-04-10T01:46:00;101936.0;;;16.15;41.58
61676;BME280;47574;52.090;5.244;2023-04-10T01:50:54;101940.0;;;16.32;41.41
61676;BME280;47574;52.090;5.244;2023-04-10T01:52:31;101941.0;;;16.29;41.47
61676;BME280;47574;52.090;5.244;2023-04-10T01:54:08;101942.0;;;15.92;41.93
61676;BME280;47574;52.090;5.244;2023-04-10T01:55:45;101938.0;;;15.89;42.12
61676;BME280;47574;52.090;5.244;2023-04-10T01:59:00;101937.0;;;16.15;41.83
61676;BME280;47574;52.090;5.244;2023-04-10T02:00:37;101934.0;;;15.97;42.3
61676;BME280;47574;52.090;5.244;2023-04-10T02:02:14;101935.0;;;15.94;42.22
61676;BME280;47574;52.090;5.244;2023-04-10T02:05:40;101934.0;;;16.18;41.89
61676;BME280;47574;52.090;5.244;2023-04-10T02:07:24;101930.0;;;16.07;41.89
61676;BME280;47574;52.090;5.244;2023-04-10T02:09:16;101930.0;;;15.98;42.16
61676;BME280;47574;52.090;5.244;2023-04-10T02:11:03;101930.0;;;15.64;42.52
61676;BME280;47574;52.090;5.244;2023-04-10T02:12:45;101936.0;;;15.94;42.32
61676;BME280;47574;52.090;5.244;2023-04-10T02:16:06;101936.0;;;15.91;42.4
61676;BME280;47574;52.090;5.244;2023-04-10T02:17:43;101930.0;;;16.02;42.1
61676;BME280;47574;52.090;5.244;2023-04-10T02:19:19;101928.0;;;15.92;42.33
61676;BME280;47574;52.090;5.244;2023-04-10T02:20:58;101922.0;;;16.04;42.09
61676;BME280;47574;52.090;5.244;2023-04-10T02:24:12;101927.0;;;16.09;42.12
61676;BME280;47574;52.090;5.244;2023-04-10T02:25:48;101926.0;;;16.02;42.08
61676;BME280;47574;52.090;5.244;2023-04-10T02:27:28;101927.0;;;16.2;41.79
61676;BME280;47574;52.090;5.244;2023-04-10T02:30:41;101923.0;;;16.03;42.09
61676;BME280;47574;52.090;5.244;2023-04-10T02:32:17;101924.0;;;16.05;42.16
61676;BME280;47574;52.090;5.244;2023-04-10T02:33:53;101920.0;;;16.06;42.0
61676;BME280;47574;52.090;5.244;2023-04-10T02:38:42;101920.0;;;16.07;41.92
61676;BME280;47574;52.090;5.244;2023-04-10T02:40:18;101923.0;;;16.2;41.83
61676;BME280;47574;52.090;5.244;2023-04-10T02:41:54;101926.0;;;16.15;41.79
61676;BME280;47574;52.090;5.244;2023-04-10T02:45:07;101927.0;;;16.32;41.19
61676;BME280;47574;52.090;5.244;2023-04-10T02:46:43;101923.0;;;16.04;41.81
61676;BME280;47574;52.090;5.244;2023-04-10T02:48:20;101925.0;;;16.11;41.76
61676;BME280;47574;52.090;5.244;2023-04-10T02:51:33;101926.0;;;16.22;41.53
61676;BME280;47574;52.090;5.244;2023-04-10T02:53:09;101928.0;;;16.25;41.5
61676;BME280;47574;52.090;5.244;2023-04-10T02:54:45;101930.0;;;16.16;41.76
61676;BME280;47574;52.090;5.244;2023-04-10T02:57:57;101928.0;;;16.25;41.8
61676;BME280;47574;52.090;5.244;2023-04-10T02:59:34;101924.0;;;16.23;41.51
61676;BME280;47574;52.090;5.244;2023-04-10T03:01:10;101930.0;;;16.12;41.74
61676;BME280;47574;52.090;5.244;2023-04-10T03:02:46;101932.0;;;16.2;41.71
61676;BME280;47574;52.090;5.244;2023-04-10T03:05:58;101932.0;;;16.31;41.48
61676;BME280;47574;52.090;5.244;2023-04-10T03:07:34;101933.0;;;16.18;41.84
61676;BME280;47574;52.090;5.244;2023-04-10T03:09:10;101932.0;;;16.05;41.92
61676;BME280;47574;52.090;5.244;2023-04-10T03:12:23;101928.0;;;16.05;42.22
61676;BME280;47574;52.090;5.244;2023-04-10T03:13:59;101933.0;;;16.0;42.17
61676;BME280;47574;52.090;5.244;2023-04-10T03:15:35;101931.0;;;16.25;41.69
61676;BME280;47574;52.090;5.244;2023-04-10T03:18:47;101930.0;;;16.21;41.8
61676;BME280;47574;52.090;5.244;2023-04-10T03:20:23;101930.0;;;16.15;41.9
61676;BME280;47574;52.090;5.244;2023-04-10T03:21:59;101928.0;;;16.16;41.82
61676;BME280;47574;52.090;5.244;2023-04-10T03:23:35;101930.0;;;15.77;42.45
61676;BME280;47574;52.090;5.244;2023-04-10T03:26:48;101921.0;;;16.05;42.12
61676;BME280;47574;52.090;5.244;2023-04-10T03:28:24;101919.0;;;15.92;42.24
61676;BME280;47574;52.090;5.244;2023-04-10T03:30:00;101916.0;;;16.14;41.87
61676;BME280;47574;52.090;5.244;2023-04-10T03:33:13;101914.0;;;15.98;42.21
61676;BME280;47574;52.090;5.244;2023-04-10T03:34:49;101909.0;;;15.96;42.1
61676;BME280;47574;52.090;5.244;2023-04-10T03:36:25;101914.0;;;15.96;42.12
61676;BME280;47574;52.090;5.244;2023-04-10T03:39:37;101909.0;;;16.0;42.09
61676;BME280;47574;52.090;5.244;2023-04-10T03:41:13;101910.0;;;16.02;41.93
61676;BME280;47574;52.090;5.244;2023-04-10T03:42:49;101906.0;;;15.96;42.18
61676;BME280;47574;52.090;5.244;2023-04-10T03:46:01;101907.0;;;15.9;42.38
61676;BME280;47574;52.090;5.244;2023-04-10T03:47:38;101901.0;;;15.99;42.26
61676;BME280;47574;52.090;5.244;2023-04-10T03:49:14;101903.0;;;15.78;42.43
61676;BME280;47574;52.090;5.244;2023-04-10T03:50:50;101903.0;;;15.9;42.14
61676;BME280;47574;52.090;5.244;2023-04-10T03:54:02;101898.0;;;16.06;41.94
61676;BME280;47574;52.090;5.244;2023-04-10T03:55:38;101895.0;;;15.88;42.29
61676;BME280;47574;52.090;5.244;2023-04-10T03:57:16;101892.0;;;15.78;42.4
61676;BME280;47574;52.090;5.244;2023-04-10T04:00:29;101890.0;;;15.7;42.43
61676;BME280;47574;52.090;5.244;2023-04-10T04:02:07;101885.0;;;15.87;42.34
61676;BME280;47574;52.090;5.244;2023-04-10T04:03:43;101877.0;;;15.99;41.86
61676;BME280;47574;52.090;5.244;2023-04-10T04:06:55;101878.0;;;15.74;42.24
61676;BME280;47574;52.090;5.244;2023-04-10T04:08:31;101873.0;;;15.82;42.23
61676;BME280;47574;52.090;5.244;2023-04-10T04:10:08;101870.0;;;15.64;42.47
61676;BME280;47574;52.090;5.244;2023-04-10T04:11:43;101868.0;;;15.76;42.23
61676;BME280;47574;52.090;5.244;2023-04-10T04:14:56;101864.0;;;15.58;42.66
61676;BME280;47574;52.090;5.244;2023-04-10T04:16:32;101869.0;;;15.7;42.54
61676;BME280;47574;52.090;5.244;2023-04-10T04:18:08;101867.0;;;15.82;42.37
61676;BME280;47574;52.090;5.244;2023-04-10T04:21:20;101871.0;;;15.49;42.72
61676;BME280;47574;52.090;5.244;2023-04-10T04:22:56;101869.0;;;15.6;42.65
61676;BME280;47574;52.090;5.244;2023-04-10T04:24:33;101868.0;;;15.66;42.7
61676;BME280;47574;52.090;5.244;2023-04-10T04:27:46;101869.0;;;15.74;42.4
61676;BME280;47574;52.090;5.244;2023-04-10T04:29:22;101866.0;;;15.68;42.51
61676;BME280;47574;52.090;5.244;2023-04-10T04:30:58;101868.0;;;15.63;42.41
61676;BME280;47574;52.090;5.244;2023-04-10T04:34:10;101861.0;;;15.79;42.3
61676;BME280;47574;52.090;5.244;2023-04-10T04:35:46;101859.0;;;15.74;42.33
61676;BME280;47574;52.090;5.244;2023-04-10T04:37:24;101855.0;;;15.67;42.39
61676;BME280;47574;52.090;5.244;2023-04-10T04:39:00;101860.0;;;15.67;42.36
61676;BME280;47574;52.090;5.244;2023-04-10T04:42:13;101857.0;;;15.44;42.57
61676;BME280;47574;52.090;5.244;2023-04-10T04:43:49;101857.0;;;15.62;42.37
61676;BME280;47574;52.090;5.244;2023-04-10T04:45:25;101855.0;;;15.4;42.88
61676;BME280;47574;52.090;5.244;2023-04-10T04:48:37;101855.0;;;15.73;42.3
61676;BME280;47574;52.090;5.244;2023-04-10T04:50:13;101853.0;;;15.6;42.54
61676;BME280;47574;52.090;5.244;2023-04-10T04:51:49;101853.0;;;15.34;43.05
61676;BME280;47574;52.090;5.244;2023-04-10T04:55:02;101848.0;;;15.24;43.16
61676;BME280;47574;52.090;5.244;2023-04-10T04:56:38;101853.0;;;15.41;43.05
61676;BME280;47574;52.090;5.244;2023-04-10T04:58:14;101850.0;;;15.37;42.93
61676;BME280;47574;52.090;5.244;2023-04-10T04:59:50;101848.0;;;15.23;43.24
61676;BME280;47574;52.090;5.244;2023-04-10T05:03:02;101846.0;;;15.3;42.99
61676;BME280;47574;52.090;5.244;2023-04-10T05:04:38;101845.0;;;15.5;42.69
61676;BME280;47574;52.090;5.244;2023-04-10T05:06:14;101843.0;;;15.43;42.67
61676;BME280;47574;52.090;5.244;2023-04-10T05:09:27;101840.0;;;15.28;42.79
61676;BME280;47574;52.090;5.244;2023-04-10T05:11:03;101842.0;;;15.13;43.18
61676;BME280;47574;52.090;5.244;2023-04-10T05:12:39;101838.0;;;15.46;42.67
61676;BME280;47574;52.090;5.244;2023-04-10T05:15:51;101843.0;;;15.22;42.99
61676;BME280;47574;52.090;5.244;2023-04-10T05:17:27;101841.0;;;15.28;42.9
61676;BME280;47574;52.090;5.244;2023-04-10T05:19:03;101846.0;;;15.36;42.86
61676;BME280;47574;52.090;5.244;2023-04-10T05:22:16;101849.0;;;15.29;42.86
61676;BME280;47574;52.090;5.244;2023-04-10T05:23:52;101843.0;;;15.36;42.72
61676;BME280;47574;52.090;5.244;2023-04-10T05:25:28;101840.0;;;15.42;42.59
61676;BME280;47574;52.090;5.244;2023-04-10T05:27:04;101832.0;;;15.22;42.99
61676;BME280;47574;52.090;5.244;2023-04-10T05:30:16;101831.0;;;15.43;42.53
61676;BME280;47574;52.090;5.244;2023-04-10T05:31:52;101828.0;;;15.25;42.57
61676;BME280;47574;52.090;5.244;2023-04-10T05:33:28;101830.0;;;15.42;42.37
61676;BME280;47574;52.090;5.244;2023-04-10T05:36:42;101831.0;;;15.38;42.45
61676;BME280;47574;52.090;5.244;2023-04-10T05:38:19;101833.0;;;15.2;42.86
61676;BME280;47574;52.090;5.244;2023-04-10T05:46:14;101830.0;;;15.32;42.16
61676;BME280;47574;52.090;5.244;2023-04-10T05:49:28;101834.0;;;15.35;42.25
61676;BME280;47574;52.090;5.244;2023-04-10T05:51:05;101834.0;;;15.37;42.25
61676;BME280;47574;52.090;5.244;2023-04-10T05:52:42;101832.0;;;15.47;41.82
61676;BME280;47574;52.090;5.244;2023-04-10T05:54:18;101836.0;;;15.48;41.84
61676;BME280;47574;52.090;5.244;2023-04-10T05:57:30;101830.0;;;15.35;42.08
61676;BME280;47574;52.090;5.244;2023-04-10T05:59:06;101833.0;;;15.36;42.02
61676;BME280;47574;52.090;5.244;2023-04-10T06:00:42;101832.0;;;15.42;41.84
61676;BME280;47574;52.090;5.244;2023-04-10T06:03:54;101827.0;;;15.28;41.95
61676;BME280;47574;52.090;5.244;2023-04-10T06:05:31;101828.0;;;15.53;41.77
61676;BME280;47574;52.090;5.244;2023-04-10T06:07:07;101827.0;;;15.51;41.66
61676;BME280;47574;52.090;5.244;2023-04-10T06:10:19;101824.0;;;15.58;41.43
61676;BME280;47574;52.090;5.244;2023-04-10T06:11:55;101820.0;;;15.63;41.29
61676;BME280;47574;52.090;5.244;2023-04-10T06:13:31;101816.0;;;15.82;40.94
61676;BME280;47574;52.090;5.244;2023-04-10T06:16:43;101812.0;;;15.79;40.89
61676;BME280;47574;52.090;5.244;2023-04-10T06:18:19;101811.0;;;15.62;41.23
61676;BME280;47574;52.090;5.244;2023-04-10T06:19:56;101805.0;;;15.46;41.62
61676;BME280;47574;52.090;5.244;2023-04-10T06:21:32;101802.0;;;15.35;41.5
61676;BME280;47574;52.090;5.244;2023-04-10T06:24:44;101800.0;;;15.74;40.98
61676;BME280;47574;52.090;5.244;2023-04-10T06:26:20;101800.0;;;15.6;41.09
61676;BME280;47574;52.090;5.244;2023-04-10T06:27:56;101792.0;;;15.68;41.0
61676;BME280;47574;52.090;5.244;2023-04-10T06:31:09;101785.0;;;15.69;41.17
61676;BME280;47574;52.090;5.244;2023-04-10T06:32:45;101784.0;;;15.77;40.67
61676;BME280;47574;52.090;5.244;2023-04-10T06:34:21;101778.0;;;15.65;41.08
61676;BME280;47574;52.090;5.244;2023-04-10T06:37:33;101769.0;;;15.67;40.89
61676;BME280;47574;52.090;5.244;2023-04-10T06:39:09;101769.0;;;15.47;41.37
61676;BME280;47574;52.090;5.244;2023-04-10T06:40:45;101768.0;;;15.54;41.19
61676;BME280;47574;52.090;5.244;2023-04-10T06:42:21;101766.0;;;15.62;41.08
61676;BME280;47574;52.090;5.244;2023-04-10T06:45:34;101764.0;;;15.75;40.81
61676;BME280;47574;52.090;5.244;2023-04-10T06:47:10;101763.0;;;15.91;40.49
61676;BME280;47574;52.090;5.244;2023-04-10T06:48:46;101755.0;;;15.9;40.74
61676;BME280;47574;52.090;5.244;2023-04-10T06:51:58;101752.0;;;16.04;40.56
61676;BME280;47574;52.090;5.244;2023-04-10T06:53:34;101750.0;;;15.78;40.9
61676;BME280;47574;52.090;5.244;2023-04-10T06:55:10;101743.0;;;16.0;40.49
61676;BME280;47574;52.090;5.244;2023-04-10T06:58:23;101740.0;;;16.11;40.19
61676;BME280;47574;52.090;5.244;2023-04-10T06:59:59;101737.0;;;15.79;40.83
61676;BME280;47574;52.090;5.244;2023-04-10T07:01:35;101736.0;;;15.74;40.92
61676;BME280;47574;52.090;5.244;2023-04-10T07:04:47;101733.0;;;15.99;40.6
61676;BME280;47574;52.090;5.244;2023-04-10T07:06:23;101726.0;;;15.95;40.58
61676;BME280;47574;52.090;5.244;2023-04-10T07:07:59;101724.0;;;15.94;40.64
61676;BME280;47574;52.090;5.244;2023-04-10T07:09:36;101719.0;;;16.0;40.47
61676;BME280;47574;52.090;5.244;2023-04-10T07:12:49;101721.0;;;15.9;40.69
61676;BME280;47574;52.090;5.244;2023-04-10T07:14:25;101714.0;;;15.87;40.83
61676;BME280;47574;52.090;5.244;2023-04-10T07:16:01;101712.0;;;16.36;39.94
61676;BME280;47574;52.090;5.244;2023-04-10T07:19:13;101714.0;;;16.21;40.18
61676;BME280;47574;52.090;5.244;2023-04-10T07:20:50;101708.0;;;15.99;40.39
61676;BME280;47574;52.090;5.244;2023-04-10T07:22:25;101705.0;;;16.29;39.78
61676;BME280;47574;52.090;5.244;2023-04-10T07:25:40;101700.0;;;15.84;40.56
61676;BME280;47574;52.090;5.244;2023-04-10T07:27:16;101701.0;;;16.05;40.28
61676;BME280;47574;52.090;5.244;2023-04-10T07:28:52;101696.0;;;16.43;39.67
61676;BME280;47574;52.090;5.244;2023-04-10T07:30:28;101693.0;;;16.56;39.42
61676;BME280;47574;52.090;5.244;2023-04-10T07:33:40;101687.0;;;16.52;39.49
61676;BME280;47574;52.090;5.244;2023-04-10T07:35:17;101690.0;;;16.59;39.42
61676;BME280;47574;52.090;5.244;2023-04-10T07:36:52;101689.0;;;16.75;39.03
61676;BME280;47574;52.090;5.244;2023-04-10T07:40:06;101682.0;;;16.03;40.11
61676;BME280;47574;52.090;5.244;2023-04-10T07:41:43;101685.0;;;16.38;39.76
61676;BME280;47574;52.090;5.244;2023-04-10T07:43:19;101683.0;;;16.68;39.12
61676;BME280;47574;52.090;5.244;2023-04-10T07:46:31;101678.0;;;16.93;38.54
61676;BME280;47574;52.090;5.244;2023-04-10T07:48:07;101674.0;;;16.88;38.69
61676;BME280;47574;52.090;5.244;2023-04-10T07:49:43;101666.0;;;16.59;38.92
61676;BME280;47574;52.090;5.244;2023-04-10T07:52:56;101667.0;;;16.9;38.61
61676;BME280;47574;52.090;5.244;2023-04-10T07:54:32;101662.0;;;16.86;38.61
61676;BME280;47574;52.090;5.244;2023-04-10T07:56:14;101655.0;;;17.13;38.12
61676;BME280;47574;52.090;5.244;2023-04-10T07:57:50;101662.0;;;16.68;38.79
61676;BME280;47574;52.090;5.244;2023-04-10T08:01:03;101657.0;;;17.16;38.1
61676;BME280;47574;52.090;5.244;2023-04-10T08:02:39;101652.0;;;17.2;38.19
61676;BME280;47574;52.090;5.244;2023-04-10T08:04:15;101647.0;;;17.45;37.92
61676;BME280;47574;52.090;5.244;2023-04-10T08:07:27;101652.0;;;17.03;38.08
61676;BME280;47574;52.090;5.244;2023-04-10T08:09:03;101655.0;;;17.03;38.42
61676;BME280;47574;52.090;5.244;2023-04-10T08:10:39;101649.0;;;17.02;38.04
61676;BME280;47574;52.090;5.244;2023-04-10T08:13:56;101649.0;;;17.05;38.36
61676;BME280;47574;52.090;5.244;2023-04-10T08:15:34;101645.0;;;17.34;37.94
61676;BME280;47574;52.090;5.244;2023-04-10T08:17:12;101639.0;;;17.45;37.74
61676;BME280;47574;52.090;5.244;2023-04-10T08:18:49;101642.0;;;17.37;37.89
61676;BME280;47574;52.090;5.244;2023-04-10T08:22:04;101645.0;;;17.07;38.62
61676;BME280;47574;52.090;5.244;2023-04-10T08:23:41;101639.0;;;17.38;37.99
61676;BME280;47574;52.090;5.244;2023-04-10T08:25:18;101635.0;;;17.46;37.85
61676;BME280;47574;52.090;5.244;2023-04-10T08:28:33;101634.0;;;17.5;37.92
61676;BME280;47574;52.090;5.244;2023-04-10T08:30:10;101627.0;;;17.52;37.82
61676;BME280;47574;52.090;5.244;2023-04-10T08:31:48;101627.0;;;17.68;37.49
61676;BME280;47574;52.090;5.244;2023-04-10T08:33:25;101619.0;;;17.27;38.03
61676;BME280;47574;52.090;5.244;2023-04-10T08:36:41;101620.0;;;17.09;38.39
61676;BME280;47574;52.090;5.244;2023-04-10T08:38:17;101607.0;;;17.2;38.67
61676;BME280;47574;52.090;5.244;2023-04-10T08:39:54;101609.0;;;17.68;38.17
61676;BME280;47574;52.090;5.244;2023-04-10T08:43:09;101608.0;;;17.5;38.22
61676;BME280;47574;52.090;5.244;2023-04-10T08:44:47;101605.0;;;17.71;38.03
61676;BME280;47574;52.090;5.244;2023-04-10T08:46:27;101605.0;;;17.71;38.0
61676;BME280;47574;52.090;5.244;2023-04-10T08:48:06;101601.0;;;17.61;38.01
61676;BME280;47574;52.090;5.244;2023-04-10T08:51:35;101603.0;;;17.3;38.65
61676;BME280;47574;52.090;5.244;2023-04-10T08:53:15;101599.0;;;17.47;38.35
61676;BME280;47574;52.090;5.244;2023-04-10T08:54:58;101601.0;;;17.23;38.78
61676;BME280;47574;52.090;5.244;2023-04-10T08:56:40;101600.0;;;17.7;37.99
61676;BME280;47574;52.090;5.244;2023-04-10T08:59:57;101602.0;;;17.73;38.03
61676;BME280;47574;52.090;5.244;2023-04-10T09:01:35;101599.0;;;17.46;38.54
61676;BME280;47574;52.090;5.244;2023-04-10T09:03:14;101596.0;;;17.54;38.46
61676;BME280;47574;52.090;5.244;2023-04-10T09:04:53;101591.0;;;17.91;38.03
61676;BME280;47574;52.090;5.244;2023-04-10T09:08:09;101587.0;;;17.87;37.94
61676;BME280;47574;52.090;5.244;2023-04-10T09:09:47;101586.0;;;17.64;38.42
61676;BME280;47574;52.090;5.244;2023-04-10T09:11:54;101580.0;;;17.5;38.78
61676;BME280;47574;52.090;5.244;2023-04-10T09:13:34;101572.0;;;17.62;38.49
61676;BME280;47574;52.090;5.244;2023-04-10T09:15:13;101574.0;;;17.59;38.65
61676;BME280;47574;52.090;5.244;2023-04-10T09:18:47;101571.0;;;17.86;38.12
61676;BME280;47574;52.090;5.244;2023-04-10T09:20:28;101571.0;;;18.14;38.14
61676;BME280;47574;52.090;5.244;2023-04-10T09:22:06;101566.0;;;18.11;37.9
61676;BME280;47574;52.090;5.244;2023-04-10T09:23:45;101564.0;;;17.95;38.28
61676;BME280;47574;52.090;5.244;2023-04-10T09:27:08;101556.0;;;18.09;38.03
61676;BME280;47574;52.090;5.244;2023-04-10T09:28:55;101555.0;;;18.07;37.93
61676;BME280;47574;52.090;5.244;2023-04-10T09:30:36;101550.0;;;18.11;38.1
61676;BME280;47574;52.090;5.244;2023-04-10T09:32:35;101548.0;;;17.93;38.33
61676;BME280;47574;52.090;5.244;2023-04-10T09:34:14;101547.0;;;17.77;38.43
61676;BME280;47574;52.090;5.244;2023-04-10T09:37:35;101545.0;;;18.02;38.12
61676;BME280;47574;52.090;5.244;2023-04-10T09:39:13;101530.0;;;17.81;38.49
61676;BME280;47574;52.090;5.244;2023-04-10T09:40:51;101530.0;;;18.05;37.99
61676;BME280;47574;52.090;5.244;2023-04-10T09:42:30;101523.0;;;18.11;38.07
61676;BME280;47574;52.090;5.244;2023-04-10T09:45:48;101518.0;;;18.27;37.72
61676;BME280;47574;52.090;5.244;2023-04-10T09:47:27;101517.0;;;18.18;37.86
61676;BME280;47574;52.090;5.244;2023-04-10T09:49:04;101518.0;;;18.09;38.1
61676;BME280;47574;52.090;5.244;2023-04-10T09:50:43;101511.0;;;18.48;37.29
61676;BME280;47574;52.090;5.244;2023-04-10T09:54:00;101511.0;;;18.41;37.42
61676;BME280;47574;52.090;5.244;2023-04-10T09:55:40;101506.0;;;18.06;37.78
61676;BME280;47574;52.090;5.244;2023-04-10T09:57:20;101508.0;;;18.34;37.64
61676;BME280;47574;52.090;5.244;2023-04-10T10:00:39;101507.0;;;18.11;37.78
61676;BME280;47574;52.090;5.244;2023-04-10T10:02:17;101501.0;;;18.25;37.86
61676;BME280;47574;52.090;5.244;2023-04-10T10:03:58;101502.0;;;18.41;37.53
61676;BME280;47574;52.090;5.244;2023-04-10T10:05:39;101492.0;;;18.36;37.42
61676;BME280;47574;52.090;5.244;2023-04-10T10:09:00;101488.0;;;18.41;37.31
61676;BME280;47574;52.090;5.244;2023-04-10T10:10:44;101488.0;;;18.28;37.68
61676;BME280;47574;52.090;5.244;2023-04-10T10:12:25;101485.0;;;18.56;37.49
61676;BME280;47574;52.090;5.244;2023-04-10T10:14:08;101483.0;;;18.7;37.57
61676;BME280;47574;52.090;5.244;2023-04-10T10:15:55;101485.0;;;18.95;37.21
61676;BME280;47574;52.090;5.244;2023-04-10T10:19:26;101477.0;;;18.89;37.31
61676;BME280;47574;52.090;5.244;2023-04-10T10:21:07;101471.0;;;18.72;37.06
61676;BME280;47574;52.090;5.244;2023-04-10T10:22:45;101463.0;;;18.89;36.71
61676;BME280;47574;52.090;5.244;2023-04-10T10:24:22;101455.0;;;19.2;36.53
61676;BME280;47574;52.090;5.244;2023-04-10T10:27:41;101457.0;;;19.2;36.56
61676;BME280;47574;52.090;5.244;2023-04-10T10:29:20;101457.0;;;19.22;36.6
61676;BME280;47574;52.090;5.244;2023-04-10T10:31:01;101448.0;;;19.09;36.82
61676;BME280;47574;52.090;5.244;2023-04-10T10:32:40;101445.0;;;19.18;36.96
61676;BME280;47574;52.090;5.244;2023-04-10T10:35:57;101445.0;;;19.11;36.67
61676;BME280;47574;52.090;5.244;2023-04-10T10:37:36;101446.0;;;19.3;36.56
61676;BME280;47574;52.090;5.244;2023-04-10T10:39:23;101441.0;;;19.27;36.87
61676;BME280;47574;52.090;5.244;2023-04-10T10:41:09;101439.0;;;19.34;36.64
61676;BME280;47574;52.090;5.244;2023-04-10T10:44:41;101432.0;;;19.05;37.39
61676;BME280;47574;52.090;5.244;2023-04-10T10:46:32;101430.0;;;19.37;36.67
61676;BME280;47574;52.090;5.244;2023-04-10T10:48:13;101421.0;;;18.98;37.42
61676;BME280;47574;52.090;5.244;2023-04-10T10:49:54;101418.0;;;19.2;37.43
61676;BME280;47574;52.090;5.244;2023-04-10T10:51:48;101413.0;;;19.45;37.03
61676;BME280;47574;52.090;5.244;2023-04-10T10:53:31;101415.0;;;19.43;36.99
61676;BME280;47574;52.090;5.244;2023-04-10T10:57:45;101409.0;;;19.14;37.37
61676;BME280;47574;52.090;5.244;2023-04-10T10:59:55;101402.0;;;19.36;37.1
61676;BME280;47574;52.090;5.244;2023-04-10T11:01:32;101399.0;;;19.68;36.9
61676;BME280;47574;52.090;5.244;2023-04-10T11:03:26;101401.0;;;19.68;37.1
61676;BME280;47574;52.090;5.244;2023-04-10T11:05:05;101390.0;;;19.91;36.85
61676;BME280;47574;52.090;5.244;2023-04-10T11:06:50;101388.0;;;19.59;37.24
61676;BME280;47574;52.090;5.244;2023-04-10T11:08:39;101378.0;;;19.89;36.99
61676;BME280;47574;52.090;5.244;2023-04-10T11:10:19;101376.0;;;20.34;36.87
61676;BME280;47574;52.090;5.244;2023-04-10T11:13:13;101377.0;;;20.12;36.72
61676;BME280;47574;52.090;5.244;2023-04-10T11:14:59;101366.0;;;20.18;36.86
61676;BME280;47574;52.090;5.244;2023-04-10T11:16:41;101360.0;;;20.05;37.0